Metar z połowy godziny Komunikat METAR ze strony awiacja.imgw.pl Metar G30 EPCE METAR EPCE 240530Z 20010KT 160V230 3900 BR OVC006 01/00 Q1014 RMK 010 094 8/8 =